Time;durP1;ratioP1;P1;durP2;ratioP2;P2;SDS_P1;SDS_P2;PMS_P1;PMS_P2;Temp;Humidity;BMP_temperature;BMP_pressure;BME280_temperature;BME280_humidity;BME280_pressure;Samples;Min_cycle;Max_cycle;Signal;HPM_P1;HPM_P2
2022/06/11 00:00:18;;;;;;;;;10.67;10.67;;;;;37.49;24.55;101712.03;5095217;27;45655;-76
2022/06/11 00:02:43;;;;;;;;;10.67;9.67;;;;;37.46;24.07;101721.47;5094388;27;45434;-76
2022/06/11 00:05:09;;;;;;;;;11.00;10.00;;;;;37.46;24.45;101717.84;5095345;27;45490;-76
2022/06/11 00:07:35;;;;;;;;;10.67;8.67;;;;;37.40;24.23;101708.13;5095540;27;45516;-75
2022/06/11 00:10:01;;;;;;;;;9.33;9.33;;;;;37.43;24.72;101721.72;5095346;27;45611;-76
2022/06/11 00:12:27;;;;;;;;;12.33;10.00;;;;;37.41;24.78;101708.00;5095198;27;45425;-76
2022/06/11 00:14:53;;;;;;;;;10.00;10.00;;;;;37.41;24.72;101713.53;5095197;27;46364;-76
2022/06/11 00:17:21;;;;;;;;;10.67;9.00;;;;;37.36;24.74;101707.50;5094813;27;45503;-76
2022/06/11 00:19:47;;;;;;;;;9.00;9.00;;;;;37.31;24.54;101700.56;5095279;27;45409;-76
2022/06/11 00:22:15;;;;;;;;;11.00;11.00;;;;;37.36;24.50;101712.16;5093470;27;45427;-76
2022/06/11 00:24:41;;;;;;;;;11.33;10.00;;;;;37.29;23.95;101700.69;5095016;27;45532;-75
2022/06/11 00:27:08;;;;;;;;;9.67;9.67;;;;;37.23;24.69;101704.78;5110558;27;45429;-76
2022/06/11 00:29:36;;;;;;;;;11.67;10.67;;;;;37.29;24.22;101705.34;5095179;27;45440;-76
2022/06/11 00:32:02;;;;;;;;;8.33;8.33;;;;;37.29;24.81;101705.34;5095566;27;45243;-76
2022/06/11 00:34:28;;;;;;;;;9.33;9.00;;;;;37.27;24.42;101710.97;5094559;27;45509;-76
2022/06/11 00:36:55;;;;;;;;;9.67;8.33;;;;;37.09;24.32;101680.13;5095071;27;45236;-76
2022/06/11 00:39:24;;;;;;;;;10.00;10.00;;;;;37.23;24.80;101704.78;5094471;27;45349;-76
2022/06/11 00:41:55;;;;;;;;;10.00;10.00;;;;;37.22;23.97;101689.19;5095254;27;45517;-75
2022/06/11 00:44:20;;;;;;;;;9.67;9.00;;;;;37.07;24.17;101693.16;5094330;27;46591;-76
2022/06/11 00:46:55;;;;;;;;;13.33;10.00;;;;;36.98;24.72;101692.03;5095097;27;45337;-76
2022/06/11 00:49:28;;;;;;;;;10.67;10.00;;;;;37.04;24.45;101710.88;5093874;27;45387;-75
2022/06/11 00:52:03;;;;;;;;;8.00;8.00;;;;;37.04;24.63;101710.03;5093602;27;45614;-76
2022/06/11 00:54:32;;;;;;;;;10.67;10.67;;;;;37.11;24.25;101705.75;5094340;27;45337;-76
2022/06/11 00:56:59;;;;;;;;;13.00;11.33;;;;;37.07;24.59;101712.53;5094847;27;45326;-76
2022/06/11 00:59:36;;;;;;;;;10.00;10.00;;;;;37.19;24.28;101711.56;5094589;27;45452;-76
2022/06/11 01:02:02;;;;;;;;;11.00;9.33;;;;;37.02;24.77;101706.47;5100981;27;45581;-75
2022/06/11 01:04:48;;;;;;;;;12.50;12.50;;;;;37.07;24.37;101704.25;5093380;27;46237;-75
2022/06/11 01:07:13;;;;;;;;;11.00;10.67;;;;;37.05;24.47;101714.56;5094072;27;45514;-76
2022/06/11 01:10:05;;;;;;;;;10.33;10.00;;;;;36.97;24.60;101706.84;5093786;27;45425;-75
2022/06/11 01:12:48;;;;;;;;;10.33;9.67;;;;;36.95;24.49;101705.19;5085246;27;45370;-75
2022/06/11 01:15:18;;;;;;;;;11.33;10.33;;;;;36.99;24.96;101706.72;5094134;27;46159;-75
2022/06/11 01:18:18;;;;;;;;;14.00;9.67;;;;;37.00;24.90;101708.50;5092430;27;45466;-75
2022/06/11 01:21:21;;;;;;;;;10.67;9.33;;;;;36.94;24.75;101701.56;5094279;27;45477;-75
2022/06/11 01:24:14;;;;;;;;;10.67;9.33;;;;;37.04;25.00;101715.56;5023150;28;45499;-75
2022/06/11 01:27:11;;;;;;;;;14.00;12.00;;;;;36.83;25.02;101685.78;5030274;28;45674;-75
2022/06/11 01:29:44;;;;;;;;;11.33;11.33;;;;;36.83;24.71;101707.06;5032848;28;45482;-75
2022/06/11 01:32:39;;;;;;;;;9.67;8.00;;;;;36.79;24.93;101711.06;5034782;28;45226;-75
2022/06/11 01:35:31;;;;;;;;;14.67;12.00;;;;;36.87;24.63;101714.97;5029096;28;45499;-75
2022/06/11 01:38:06;;;;;;;;;13.00;11.67;;;;;36.87;24.59;101712.22;5027062;28;46155;-75
2022/06/11 01:40:54;;;;;;;;;11.00;11.00;;;;;36.89;24.61;101703.78;5033510;28;46095;-75
2022/06/11 01:43:31;;;;;;;;;11.33;11.33;;;;;36.93;24.52;101713.63;5017654;28;45488;-75
2022/06/11 01:46:08;;;;;;;;;10.00;10.00;;;;;36.83;25.10;101698.75;5027539;28;45426;-75
2022/06/11 01:48:34;;;;;;;;;10.00;10.00;;;;;36.80;24.89;101705.41;5033424;28;46232;-75
2022/06/11 01:51:30;;;;;;;;;8.00;8.00;;;;;36.85;24.68;101714.22;5034336;28;45553;-75
2022/06/11 01:54:20;;;;;;;;;9.67;9.67;;;;;36.83;25.07;101718.97;4975017;28;45442;-75
2022/06/11 01:56:54;;;;;;;;;9.00;9.00;;;;;36.80;25.01;101719.22;4974425;28;45378;-75
2022/06/11 01:59:46;;;;;;;;;8.00;8.00;;;;;36.78;24.44;101718.44;4974789;28;46190;-75
2022/06/11 02:02:14;;;;;;;;;8.67;8.67;;;;;36.73;25.10;101709.63;5017612;28;45834;-75
2022/06/11 02:05:04;;;;;;;;;11.00;10.00;;;;;36.60;25.16;101709.69;5033310;28;45322;-75
2022/06/11 02:07:42;;;;;;;;;10.00;8.67;;;;;36.59;24.91;101712.56;5034069;28;45502;-75
2022/06/11 02:10:20;;;;;;;;;8.33;8.33;;;;;36.54;25.32;101711.03;5034251;28;45574;-75
2022/06/11 02:12:52;;;;;;;;;10.33;10.33;;;;;36.54;24.66;101719.31;5016836;28;45627;-75
2022/06/11 02:15:37;;;;;;;;;9.67;8.00;;;;;36.46;24.94;101715.38;5034112;28;45657;-75
2022/06/11 02:18:15;;;;;;;;;9.00;9.00;;;;;36.57;25.18;101721.84;5033920;28;45422;-75
2022/06/11 02:20:49;;;;;;;;;11.00;9.67;;;;;36.45;24.54;101708.09;5014271;28;47527;-75
2022/06/11 02:23:19;;;;;;;;;9.33;8.00;;;;;36.54;25.08;101716.56;5034054;28;45400;-75
2022/06/11 02:25:55;;;;;;;;;12.00;10.33;;;;;36.48;24.65;101711.47;5033247;28;45484;-75
2022/06/11 02:28:25;;;;;;;;;11.67;10.33;;;;;36.38;25.13;101721.47;5033892;28;45531;-75
2022/06/11 02:30:52;;;;;;;;;11.33;10.00;;;;;36.39;24.72;101713.06;5064822;27;45428;-75
2022/06/11 02:33:19;;;;;;;;;14.33;12.33;;;;;36.43;25.16;101713.75;5096678;27;45467;-75
2022/06/11 02:36:03;;;;;;;;;9.33;9.00;;;;;36.38;25.43;101714.06;5095951;27;45472;-76
2022/06/11 02:38:29;;;;;;;;;9.00;7.67;;;;;36.42;25.07;101722.16;5095617;27;45379;-75
2022/06/11 02:40:59;;;;;;;;;2.67;2.00;;;;;36.35;24.82;101716.19;5095760;27;45526;-75
2022/06/11 02:43:25;;;;;;;;;10.67;9.33;;;;;36.38;25.26;101722.34;5096508;27;45428;-75
2022/06/11 02:45:50;;;;;;;;;8.33;8.33;;;;;36.38;24.97;101738.06;5096606;27;45310;-75
2022/06/11 02:48:16;;;;;;;;;9.33;8.67;;;;;36.34;25.05;101720.81;5096579;27;45404;-75
2022/06/11 02:50:43;;;;;;;;;9.00;9.00;;;;;36.18;25.76;101729.34;5095733;27;46716;-75
2022/06/11 02:53:10;;;;;;;;;9.33;8.00;;;;;36.11;25.48;101730.81;5095322;27;45406;-75
2022/06/11 02:55:37;;;;;;;;;10.00;10.00;;;;;36.09;25.46;101730.06;5096673;27;45342;-75
2022/06/11 02:58:04;;;;;;;;;8.00;8.00;;;;;36.11;25.41;101735.47;5096157;27;45293;-75
2022/06/11 03:00:35;;;;;;;;;8.33;8.33;;;;;36.13;25.39;101725.16;5096428;27;46396;-75
2022/06/11 03:03:01;;;;;;;;;12.00;10.00;;;;;36.14;25.47;101741.63;5095832;27;45412;-75
2022/06/11 03:05:29;;;;;;;;;10.00;10.00;;;;;36.10;25.44;101740.09;5096262;27;45411;-75
2022/06/11 03:07:56;;;;;;;;;10.33;8.33;;;;;36.15;25.74;101737.00;5094573;27;45436;-75
2022/06/11 03:10:24;;;;;;;;;8.00;8.00;;;;;36.18;24.91;101737.63;5096180;27;46198;-75
2022/06/11 03:12:50;;;;;;;;;6.00;4.67;;;;;36.19;25.04;101739.41;5094442;27;45671;-74
2022/06/11 03:15:17;;;;;;;;;10.33;9.00;;;;;36.15;25.02;101740.63;5096324;27;45369;-74
2022/06/11 03:17:44;;;;;;;;;10.33;10.33;;;;;36.14;25.11;101738.00;5096075;27;45728;-75
2022/06/11 03:20:11;;;;;;;;;9.00;8.00;;;;;36.14;25.31;101741.63;5128347;27;47857;-75
2022/06/11 03:22:37;;;;;;;;;12.00;11.00;;;;;36.10;25.03;101744.75;5096170;27;45588;-75
2022/06/11 03:25:03;;;;;;;;;8.00;7.00;;;;;35.86;25.18;101707.75;5095221;27;45417;-75
2022/06/11 03:27:29;;;;;;;;;7.67;7.67;;;;;35.84;25.09;101707.00;5096327;27;45420;-75
2022/06/11 03:29:54;;;;;;;;;11.33;9.33;;;;;36.06;25.41;101747.72;5095431;27;46297;-74
2022/06/11 03:32:20;;;;;;;;;8.00;7.00;;;;;36.04;25.23;101746.94;5094359;27;46078;-75
2022/06/11 03:34:46;;;;;;;;;9.00;8.00;;;;;36.06;25.19;101739.44;5095839;27;45433;-75
2022/06/11 03:37:13;;;;;;;;;7.00;7.00;;;;;36.04;25.18;101746.06;5095561;27;45646;-74
2022/06/11 03:39:38;;;;;;;;;7.33;7.33;;;;;35.95;25.76;101747.66;5094116;27;47146;-75
2022/06/11 03:42:05;;;;;;;;;8.00;8.00;;;;;36.07;25.12;101756.91;5094129;27;45444;-74
2022/06/11 03:44:30;;;;;;;;;9.00;9.00;;;;;36.06;25.47;101758.78;5094400;27;45579;-75
2022/06/11 03:46:56;;;;;;;;;8.33;8.33;;;;;35.95;25.43;101755.94;5094742;27;45443;-75
2022/06/11 03:49:22;;;;;;;;;9.33;8.33;;;;;35.99;25.15;101767.63;5095510;27;46029;-74
2022/06/11 03:51:48;;;;;;;;;9.67;8.67;;;;;35.88;25.23;101774.81;5095062;27;45512;-75
2022/06/11 03:54:14;;;;;;;;;12.33;9.33;;;;;35.68;25.38;101739.44;5095660;27;45349;-74
2022/06/11 03:56:40;;;;;;;;;8.00;8.00;;;;;35.73;25.70;101775.88;5096161;27;45410;-74
2022/06/11 03:59:07;;;;;;;;;10.00;9.33;;;;;35.74;25.22;101780.44;5095034;27;45645;-74
2022/06/11 04:01:33;;;;;;;;;10.67;9.33;;;;;35.83;25.45;101782.53;5095399;27;45343;-75
2022/06/11 04:04:04;;;;;;;;;9.33;8.33;;;;;35.78;25.58;101786.59;5095443;27;45379;-75
2022/06/11 04:06:36;;;;;;;;;7.67;7.67;;;;;35.78;25.37;101784.72;5095860;27;45420;-75
2022/06/11 04:09:05;;;;;;;;;8.67;8.00;;;;;35.75;25.27;101787.69;5094902;27;45521;-76
2022/06/11 04:11:31;;;;;;;;;8.33;8.33;;;;;35.77;25.70;101788.47;5095585;27;45455;-75
2022/06/11 04:13:56;;;;;;;;;7.00;7.00;;;;;35.79;25.62;101786.47;5095499;27;45356;-76
2022/06/11 04:16:33;;;;;;;;;8.00;8.00;;;;;35.84;25.60;101794.50;5095120;27;45567;-76
2022/06/11 04:19:02;;;;;;;;;10.00;8.33;;;;;35.83;25.41;101793.59;5095050;27;46346;-76
2022/06/11 04:21:29;;;;;;;;;8.33;7.33;;;;;35.83;25.60;101798.22;5095799;27;45290;-75
2022/06/11 04:23:58;;;;;;;;;7.00;7.00;;;;;35.93;25.27;101798.44;5095777;27;45591;-75
2022/06/11 04:26:32;;;;;;;;;9.33;8.33;;;;;35.93;25.76;101792.94;5095245;27;45437;-75
2022/06/11 04:29:00;;;;;;;;;8.00;8.00;;;;;35.91;25.21;101800.44;5094850;27;46834;-75
2022/06/11 04:31:27;;;;;;;;;8.33;8.33;;;;;35.95;25.42;101796.44;5095015;27;45380;-75
2022/06/11 04:33:54;;;;;;;;;7.00;7.00;;;;;35.97;25.33;101809.16;5095407;27;45924;-75
2022/06/11 04:36:23;;;;;;;;;9.00;8.00;;;;;35.92;25.29;101802.19;5095029;27;45320;-76
2022/06/11 04:38:49;;;;;;;;;9.33;8.33;;;;;35.97;25.36;101816.56;5095226;27;45312;-75
2022/06/11 04:41:14;;;;;;;;;8.33;8.33;;;;;35.92;25.29;101797.53;5094640;27;45325;-76
2022/06/11 04:43:41;;;;;;;;;8.67;7.00;;;;;36.05;25.35;101816.91;5095422;27;45575;-76
2022/06/11 04:46:07;;;;;;;;;7.00;7.00;;;;;36.01;25.35;101819.00;5094511;27;45353;-76
2022/06/11 04:48:32;;;;;;;;;10.67;9.00;;;;;36.05;25.41;101817.78;5095103;27;46352;-76
2022/06/11 04:50:58;;;;;;;;;8.00;6.67;;;;;35.99;25.48;101809.03;5095360;27;45498;-79
2022/06/11 04:53:24;;;;;;;;;12.67;11.33;;;;;36.01;25.67;101818.13;5115894;27;45519;-74
2022/06/11 04:55:49;;;;;;;;;10.67;7.00;;;;;35.98;25.59;101824.75;5116078;27;45428;-74
2022/06/11 04:58:15;;;;;;;;;11.00;9.33;;;;;35.96;25.64;101820.31;5115715;27;46230;-74
2022/06/11 05:00:41;;;;;;;;;11.00;10.33;;;;;36.01;26.03;101829.16;5115507;27;45470;-74
2022/06/11 05:03:06;;;;;;;;;9.00;8.00;;;;;35.97;25.76;101816.56;5116273;27;45476;-74
2022/06/11 05:05:32;;;;;;;;;10.00;8.67;;;;;36.04;25.52;101832.56;5118086;27;45323;-74
2022/06/11 05:07:59;;;;;;;;;12.33;7.67;;;;;35.98;25.36;101807.25;5110349;27;48320;-74
2022/06/11 05:10:27;;;;;;;;;8.67;8.67;;;;;36.11;25.99;101824.72;5098609;27;45206;-75
2022/06/11 05:12:53;;;;;;;;;9.33;8.00;;;;;36.10;25.57;101835.91;5098832;27;45462;-74
2022/06/11 05:15:18;;;;;;;;;7.67;7.00;;;;;35.97;25.83;101794.47;5098410;27;45259;-74
2022/06/11 05:17:44;;;;;;;;;9.00;7.00;;;;;36.12;26.15;101814.56;5098517;27;46286;-75
2022/06/11 05:20:10;;;;;;;;;9.00;9.00;;;;;36.19;25.27;101829.69;5098514;27;45389;-76
2022/06/11 05:22:37;;;;;;;;;8.00;8.00;;;;;36.23;25.83;101831.22;5097697;27;45288;-78
2022/06/11 05:25:03;;;;;;;;;7.00;7.00;;;;;36.29;25.56;101819.75;5097435;27;45861;-75
2022/06/11 05:27:28;;;;;;;;;3.00;3.00;;;;;36.30;25.67;101835.38;5098353;27;46381;-75
2022/06/11 05:29:59;;;;;;;;;7.33;7.00;;;;;36.30;25.62;101817.84;5098568;27;45695;-77
2022/06/11 05:32:29;;;;;;;;;9.00;9.00;;;;;36.36;25.50;101823.84;5097329;27;45544;-78
2022/06/11 05:34:56;;;;;;;;;12.00;9.33;;;;;36.50;25.10;101828.34;5098813;27;45301;-76
2022/06/11 05:37:22;;;;;;;;;12.00;12.00;;;;;36.54;25.23;101832.66;5098176;27;45352;-76
2022/06/11 05:39:48;;;;;;;;;8.67;8.67;;;;;36.48;25.46;101821.16;5097180;27;46182;-77
2022/06/11 05:42:15;;;;;;;;;10.33;9.67;;;;;36.56;25.06;101827.88;5098384;27;45419;-76
2022/06/11 05:44:41;;;;;;;;;12.67;9.00;;;;;36.50;25.38;101817.28;5114006;27;45242;-77
2022/06/11 05:47:09;;;;;;;;;10.67;9.33;;;;;36.47;24.94;101798.19;5098324;27;46725;-75
2022/06/11 05:49:39;;;;;;;;;8.67;8.67;;;;;36.64;25.52;101809.84;5118940;27;45373;-76
2022/06/11 05:52:14;;;;;;;;;7.67;7.00;;;;;36.76;25.23;101827.41;5119188;27;45522;-75
2022/06/11 05:54:40;;;;;;;;;9.33;7.00;;;;;36.66;24.95;101819.78;5118886;27;45290;-76
2022/06/11 05:57:11;;;;;;;;;11.00;7.00;;;;;36.84;25.37;101834.13;5115586;27;48025;-75
2022/06/11 05:59:43;;;;;;;;;8.67;6.33;;;;;36.65;25.43;101828.19;5107143;27;45546;-74
2022/06/11 06:02:12;;;;;;;;;9.00;9.00;;;;;36.76;25.07;101830.16;5098302;27;45176;-78
2022/06/11 06:04:38;;;;;;;;;7.00;4.67;;;;;36.86;25.25;101829.34;5098265;27;45378;-77
2022/06/11 06:07:05;;;;;;;;;6.67;6.67;;;;;36.81;25.45;101828.84;5105303;27;47264;-78
2022/06/11 06:09:31;;;;;;;;;8.67;6.00;;;;;36.89;25.43;101836.53;5097700;27;45259;-75
2022/06/11 06:11:56;;;;;;;;;7.67;6.67;;;;;36.91;24.73;101817.97;5097916;27;45389;-76
2022/06/11 06:14:21;;;;;;;;;7.00;7.00;;;;;37.01;25.25;101834.75;5097280;27;45576;-74
2022/06/11 06:16:47;;;;;;;;;7.33;7.00;;;;;37.12;24.54;101825.59;5097874;27;45375;-74
2022/06/11 06:19:12;;;;;;;;;8.00;8.00;;;;;37.21;25.23;101830.44;5097355;27;45359;-75
2022/06/11 06:21:37;;;;;;;;;7.33;7.00;;;;;37.28;24.71;101842.81;5097740;27;45271;-75
2022/06/11 06:24:04;;;;;;;;;7.67;7.33;;;;;37.28;25.16;101836.41;5097664;27;45255;-74
2022/06/11 06:26:30;;;;;;;;;8.00;7.00;;;;;37.23;24.98;101829.31;5097445;27;45621;-74
2022/06/11 06:28:56;;;;;;;;;7.67;7.33;;;;;37.32;24.55;101840.72;5097426;27;45321;-74
2022/06/11 06:31:22;;;;;;;;;7.67;7.67;;;;;37.28;24.76;101848.34;5097382;27;45402;-75
2022/06/11 06:33:47;;;;;;;;;8.00;8.00;;;;;37.17;25.44;101842.72;5097900;27;45384;-74
2022/06/11 06:36:14;;;;;;;;;8.00;8.00;;;;;37.34;25.24;101842.34;5097363;27;46236;-75
2022/06/11 06:38:41;;;;;;;;;8.00;8.00;;;;;37.36;24.54;101828.41;5097357;27;45348;-89
2022/06/11 06:41:07;;;;;;;;;8.00;6.67;;;;;37.46;24.86;101825.78;5097289;27;45604;-74
2022/06/11 06:43:34;;;;;;;;;10.33;9.33;;;;;37.32;24.47;101832.41;5097380;27;45342;-74
2022/06/11 06:46:00;;;;;;;;;8.67;7.00;;;;;37.32;24.63;101838.81;5113047;27;47146;-74
2022/06/11 06:48:26;;;;;;;;;8.67;8.00;;;;;37.30;24.44;101835.28;5096926;27;45433;-75
2022/06/11 06:50:52;;;;;;;;;9.00;8.33;;;;;37.20;25.03;101845.25;5097408;27;45334;-74
2022/06/11 06:53:18;;;;;;;;;9.00;8.00;;;;;37.18;24.56;101834.31;5097265;27;45388;-75
2022/06/11 06:55:44;;;;;;;;;8.00;8.00;;;;;37.23;24.97;101834.84;5112219;27;45641;-75
2022/06/11 06:58:09;;;;;;;;;7.33;7.33;;;;;37.37;25.45;101836.56;5115463;27;45331;-75
2022/06/11 07:00:35;;;;;;;;;9.67;8.33;;;;;37.48;24.64;101843.16;5097110;27;45428;-75
2022/06/11 07:03:00;;;;;;;;;5.00;5.00;;;;;37.42;25.24;101830.66;5095535;27;45409;-75
2022/06/11 07:05:26;;;;;;;;;9.00;9.00;;;;;37.50;25.13;101839.25;5096305;27;46209;-74
2022/06/11 07:07:52;;;;;;;;;8.00;8.00;;;;;37.48;24.64;101838.47;5092836;27;45996;-75
2022/06/11 07:10:21;;;;;;;;;8.00;6.67;;;;;37.46;25.17;101836.88;5112381;27;45315;-75
2022/06/11 07:12:46;;;;;;;;;8.67;7.33;;;;;37.61;25.05;101831.97;5096626;27;45356;-74
2022/06/11 07:15:11;;;;;;;;;8.00;7.00;;;;;37.67;24.50;101831.50;5096480;27;46031;-74
2022/06/11 07:17:42;;;;;;;;;8.67;8.33;;;;;37.68;24.96;101824.94;5095536;27;45510;-75
2022/06/11 07:20:12;;;;;;;;;8.33;7.00;;;;;37.74;24.59;101839.22;5091992;27;45538;-75
2022/06/11 07:22:51;;;;;;;;;8.00;8.00;;;;;37.84;25.11;101847.69;5083742;27;45762;-75
2022/06/11 07:25:17;;;;;;;;;7.33;7.33;;;;;37.75;24.63;101840.09;5094236;27;46581;-75
2022/06/11 07:27:49;;;;;;;;;9.00;9.00;;;;;37.75;24.15;101834.56;5094182;27;45472;-80
2022/06/11 07:30:19;;;;;;;;;12.67;8.67;;;;;37.66;24.93;101847.22;5108519;27;45378;-78
2022/06/11 07:32:47;;;;;;;;;9.00;8.00;;;;;37.59;24.36;101841.28;5117063;27;45297;-77
2022/06/11 07:35:16;;;;;;;;;9.00;9.00;;;;;37.68;25.22;101841.56;5115824;27;45437;-77
2022/06/11 07:37:43;;;;;;;;;9.00;9.00;;;;;37.68;24.73;101847.09;5132851;27;45478;-77
2022/06/11 07:40:10;;;;;;;;;10.00;10.00;;;;;37.80;25.04;101836.97;5115696;27;45392;-77
2022/06/11 07:42:35;;;;;;;;;11.00;9.67;;;;;37.89;24.83;101827.91;5115764;27;45603;-77
2022/06/11 07:45:01;;;;;;;;;8.67;8.00;;;;;37.96;24.07;101831.06;5116536;27;45270;-78
2022/06/11 07:50:12;;;;;;;;;8.00;7.00;;;;;38.14;24.64;101840.66;5116988;27;45412;-77
2022/06/11 07:52:45;;;;;;;;;8.00;8.00;;;;;38.13;24.87;101846.31;5116940;27;45498;-78
2022/06/11 07:55:11;;;;;;;;;7.00;7.00;;;;;38.03;24.07;101829.56;5115154;27;47444;-78
2022/06/11 07:57:38;;;;;;;;;10.33;8.33;;;;;37.87;24.31;101839.13;5116429;27;45339;-78
2022/06/11 08:00:10;;;;;;;;;8.00;8.00;;;;;37.97;25.08;101822.63;5116875;27;45445;-77
2022/06/11 08:02:35;;;;;;;;;8.33;8.00;;;;;38.13;24.58;101838.00;5115339;27;45484;-78
2022/06/11 08:05:00;;;;;;;;;7.67;7.67;;;;;37.92;24.53;101847.94;5116730;27;46313;-78
2022/06/11 08:07:27;;;;;;;;;8.67;7.33;;;;;37.77;24.71;101845.53;5113154;27;45377;-78
2022/06/11 08:09:53;;;;;;;;;8.00;8.00;;;;;37.81;24.05;101844.25;5095996;27;45317;-78
2022/06/11 08:12:19;;;;;;;;;6.67;5.33;;;;;38.10;24.18;101839.13;5096084;27;45364;-78
2022/06/11 08:14:44;;;;;;;;;6.00;6.00;;;;;37.92;23.57;101836.88;5095836;27;45587;-78
2022/06/11 08:17:10;;;;;;;;;5.00;5.00;;;;;37.86;23.42;101823.53;5095885;27;45452;-78
2022/06/11 08:19:36;;;;;;;;;6.00;4.67;;;;;38.16;22.99;101844.19;5095700;27;45396;-78
2022/06/11 08:22:01;;;;;;;;;3.00;3.00;;;;;38.06;23.59;101832.09;5096173;27;45469;-77
2022/06/11 08:24:26;;;;;;;;;3.67;3.33;;;;;37.89;23.50;101834.34;5095187;27;46203;-78
2022/06/11 08:26:52;;;;;;;;;4.00;4.00;;;;;37.90;23.41;101844.41;5095418;27;45364;-77
2022/06/11 08:29:17;;;;;;;;;3.67;3.67;;;;;37.85;23.26;101846.69;5096284;27;45229;-78
2022/06/11 08:31:42;;;;;;;;;4.00;4.00;;;;;37.91;22.54;101840.63;5095757;27;45593;-78
2022/06/11 08:34:10;;;;;;;;;2.33;2.33;;;;;38.02;22.61;101845.31;5095852;27;46277;-78
2022/06/11 08:36:36;;;;;;;;;3.00;3.00;;;;;38.21;22.71;101847.50;5095347;27;45444;-77
2022/06/11 08:39:02;;;;;;;;;4.00;3.00;;;;;38.32;23.06;101848.53;5097265;27;45240;-77
2022/06/11 08:41:35;;;;;;;;;4.67;4.67;;;;;38.47;22.46;101840.81;5099508;27;45538;-77
2022/06/11 08:44:09;;;;;;;;;3.33;3.00;;;;;38.46;22.19;101850.16;5099287;27;46451;-78
2022/06/11 08:46:42;;;;;;;;;4.00;3.00;;;;;38.43;22.26;101840.19;5098953;27;45543;-78
2022/06/11 08:49:16;;;;;;;;;4.00;3.00;;;;;38.41;21.92;101847.75;5099246;27;45420;-78
2022/06/11 08:51:48;;;;;;;;;2.33;2.00;;;;;38.52;22.70;101841.31;5098546;27;45290;-78
2022/06/11 08:54:17;;;;;;;;;3.33;3.33;;;;;38.55;22.49;101832.72;5099059;27;46376;-77
2022/06/11 08:57:18;;;;;;;;;3.00;3.00;;;;;38.60;22.27;101833.25;5098738;27;45420;-77
2022/06/11 08:59:50;;;;;;;;;3.00;3.00;;;;;38.46;22.35;101828.84;5044569;27;45436;-78
2022/06/11 09:02:51;;;;;;;;;4.33;3.00;;;;;38.42;21.48;101850.38;5098933;27;45470;-77
2022/06/11 09:05:38;;;;;;;;;4.00;3.00;;;;;38.29;21.68;101835.78;5098511;27;45538;-77
2022/06/11 09:08:34;;;;;;;;;3.67;3.67;;;;;38.39;21.40;101828.47;5099504;27;45306;-78
2022/06/11 09:11:08;;;;;;;;;3.33;3.00;;;;;38.60;22.12;101823.03;5119336;27;45223;-78
2022/06/11 09:14:23;;;;;;;;;5.00;3.00;;;;;38.61;22.02;101815.59;5119383;27;45535;-78
2022/06/11 09:17:22;;;;;;;;;4.33;4.33;;;;;38.84;21.32;101827.53;5119030;27;45408;-78
2022/06/11 09:20:12;;;;;;;;;5.00;5.00;;;;;39.02;21.61;101822.31;5118736;27;45369;-77
2022/06/11 09:22:58;;;;;;;;;3.00;3.00;;;;;39.22;21.34;101822.53;5119082;27;45266;-77
2022/06/11 09:25:41;;;;;;;;;6.00;3.00;;;;;39.48;21.37;101814.72;5119332;27;45416;-78
2022/06/11 09:28:18;;;;;;;;;3.00;2.67;;;;;39.78;20.84;101815.81;5119361;27;46340;-77
2022/06/11 09:30:53;;;;;;;;;5.33;3.67;;;;;39.86;21.31;101813.22;5119011;27;45427;-77
2022/06/11 09:33:40;;;;;;;;;5.67;4.00;;;;;39.83;20.56;101807.06;5119196;27;45325;-77
2022/06/11 09:36:14;;;;;;;;;6.00;4.67;;;;;39.73;20.87;101823.66;5118971;27;45324;-78
2022/06/11 09:38:54;;;;;;;;;3.33;3.33;;;;;39.80;20.49;101827.66;5118827;27;45447;-78
2022/06/11 09:41:54;;;;;;;;;5.00;3.00;;;;;39.72;20.90;101825.56;5119081;27;45577;-78
2022/06/11 09:44:46;;;;;;;;;3.00;3.00;;;;;39.82;21.26;101822.84;5119092;27;45385;-78
2022/06/11 09:47:24;;;;;;;;;3.00;3.00;;;;;39.75;20.88;101824.44;5115491;27;45481;-78
2022/06/11 09:50:01;;;;;;;;;5.33;3.67;;;;;39.60;20.86;101821.09;5117483;27;45293;-77
2022/06/11 09:53:02;;;;;;;;;3.00;3.00;;;;;39.63;20.90;101824.47;5118393;27;45464;-77
2022/06/11 09:55:56;;;;;;;;;6.00;5.00;;;;;39.36;20.71;101830.53;5118353;27;45407;-77
2022/06/11 09:58:34;;;;;;;;;6.00;4.33;;;;;39.25;21.26;101809.25;5119061;27;45556;-77
2022/06/11 10:01:11;;;;;;;;;4.33;4.00;;;;;39.34;20.74;101817.78;5118665;27;46131;-77
2022/06/11 10:03:53;;;;;;;;;4.00;4.00;;;;;39.36;21.38;101826.88;5118699;27;45217;-77
2022/06/11 10:06:35;;;;;;;;;5.33;3.00;;;;;39.70;20.58;101824.81;5118186;27;45324;-77
2022/06/11 10:09:04;;;;;;;;;4.00;4.00;;;;;39.69;20.50;101817.53;5109557;27;45514;-77
2022/06/11 10:11:45;;;;;;;;;5.33;3.00;;;;;39.90;20.91;101825.84;5097816;27;45397;-77
2022/06/11 10:14:28;;;;;;;;;4.00;4.00;;;;;39.85;20.23;101828.13;5113544;27;46081;-77
2022/06/11 10:16:59;;;;;;;;;6.33;4.00;;;;;40.02;20.50;101822.97;5097780;27;45457;-77
2022/06/11 10:19:50;;;;;;;;;5.00;5.00;;;;;39.78;20.53;101821.38;5097441;27;45448;-77
2022/06/11 10:22:32;;;;;;;;;5.33;4.00;;;;;39.44;20.47;101818.78;5097490;27;46711;-77
2022/06/11 10:25:19;;;;;;;;;4.00;4.00;;;;;39.38;20.52;101822.97;5097544;27;45357;-77
2022/06/11 10:27:51;;;;;;;;;46.33;38.33;;;;;39.26;21.18;101824.91;5097404;27;45452;-77
2022/06/11 10:30:47;;;;;;;;;7.00;6.00;;;;;39.35;21.09;101823.22;5096098;27;45436;-77
2022/06/11 10:33:23;;;;;;;;;8.33;8.33;;;;;39.68;20.89;101810.19;5097235;27;45721;-77
2022/06/11 10:36:01;;;;;;;;;5.00;5.00;;;;;39.88;20.31;101813.09;5097076;27;45337;-76
2022/06/11 10:38:36;;;;;;;;;4.33;4.33;;;;;40.12;20.18;101823.91;5097329;27;45375;-76
2022/06/11 10:41:06;;;;;;;;;5.00;5.00;;;;;39.93;20.45;101811.66;5097342;27;45515;-77
2022/06/11 10:43:44;;;;;;;;;4.00;4.00;;;;;40.00;20.44;101825.84;5097232;27;46164;-77
2022/06/11 10:46:11;;;;;;;;;6.00;4.33;;;;;40.06;20.20;101819.78;5097243;27;45467;-77
2022/06/11 10:48:37;;;;;;;;;5.33;5.33;;;;;39.97;20.26;101817.81;5095724;27;45415;-77
2022/06/11 10:51:14;;;;;;;;;4.00;4.00;;;;;39.91;20.24;101816.47;5097205;27;45385;-77
2022/06/11 10:53:54;;;;;;;;;5.00;4.67;;;;;40.01;20.41;101810.94;5096780;27;46575;-77
2022/06/11 10:56:36;;;;;;;;;4.67;4.67;;;;;39.94;20.34;101809.75;5096945;27;45443;-77
2022/06/11 10:59:06;;;;;;;;;6.00;5.00;;;;;40.14;19.84;101827.41;5097232;27;45479;-77
2022/06/11 11:01:40;;;;;;;;;4.67;3.33;;;;;40.06;20.20;101811.47;5095703;27;45385;-77
2022/06/11 11:04:17;;;;;;;;;5.33;5.00;;;;;40.16;19.85;101819.84;5096497;27;45403;-77
2022/06/11 11:06:42;;;;;;;;;4.67;4.67;;;;;40.28;20.41;101818.72;5096407;27;45426;-77
2022/06/11 11:09:12;;;;;;;;;5.00;5.00;;;;;40.09;19.50;101801.97;5095913;27;45454;-76
2022/06/11 11:11:58;;;;;;;;;7.00;7.00;;;;;40.22;20.30;101802.59;5096651;27;45520;-76
2022/06/11 11:14:42;;;;;;;;;6.00;6.00;;;;;40.34;20.21;101816.38;5112171;27;47107;-76
2022/06/11 11:17:20;;;;;;;;;6.00;4.67;;;;;40.24;20.07;101792.22;5096221;27;45471;-77
2022/06/11 11:20:29;;;;;;;;;5.00;5.00;;;;;40.20;19.71;101782.41;5096220;27;45465;-77
2022/06/11 11:22:38;;;;;;;;;5.00;5.00;;;;;40.29;19.25;101814.91;5096416;27;45592;-79
2022/06/11 11:25:13;;;;;;;;;6.00;6.00;;;;;40.10;19.60;101817.59;5096323;27;46302;-77
2022/06/11 11:27:44;;;;;;;;;6.00;6.00;;;;;40.17;19.87;101810.50;5096265;27;45482;-76
2022/06/11 11:30:09;;;;;;;;;5.00;5.00;;;;;40.05;19.40;101811.59;5096577;27;45378;-77
2022/06/11 11:32:34;;;;;;;;;7.67;7.67;;;;;40.05;19.77;101803.25;5096291;27;45283;-76
2022/06/11 11:35:18;;;;;;;;;9.00;6.00;;;;;40.11;19.48;101805.47;5095994;27;46340;-77
2022/06/11 11:37:45;;;;;;;;;6.33;6.33;;;;;40.04;19.72;101782.03;5096157;27;45362;-76
2022/06/11 11:40:34;;;;;;;;;6.00;6.00;;;;;40.14;19.28;101805.19;5094847;27;45422;-76
2022/06/11 11:43:08;;;;;;;;;6.67;6.00;;;;;40.17;19.33;101793.81;5095854;27;45396;-77
2022/06/11 11:45:46;;;;;;;;;7.33;5.00;;;;;40.30;19.32;101793.56;5095877;27;45471;-77